Airfield :
LOGIN :

Register | Disclaimer

   EN    FR    IT 

 










Legend :    VFR   Marginal VFR   IFR   Intensive IFR   Very Intensive IFR
Visi :
Ceiling :
>= 8 km
>= 3000ft
5 to 8 km
1000 to 3000 ft
1500m to 5 km
500 to 1000 ft
800 to 1500m
200 to 500 ft
< 800m
< 200 ft
Symbols :   Thunderstorms  Fog  Heavy snow  Heavy precipitations  Wind > 20 kt
SIGMETs :     Misc.  Thunderstorms  Icing  Turbulence  Mountain Waves  Volcanic Ashes







- Airport Elevation : 375 ft
- IATA code : MST


EHBK - Maastricht Aachen

CURRENT METAR :
  • 222355Z AUTO 29006KT 230V340 9999 BKN025 OVC029 20/14 Q1014

EXPIRED METARs :
  • 222325Z AUTO 28005KT 230V330 9999 OVC027 20/14 Q1014
  • 222255Z AUTO 28007KT 230V340 9999 SCT028 BKN032 19/14 Q1014
  • 222225Z AUTO 28008KT 240V340 9999 FEW029 20/14 Q1014
  • 222155Z AUTO 27008KT 220V330 9999 FEW034 20/14 Q1013
  • 222125Z AUTO 28008KT 230V340 9999 BKN033 21/14 Q1013
  • 222055Z AUTO 27009KT 220V320 9999 FEW033 BKN038 21/14 Q1013

TAF TAF EHBK
Valid from the 23 at 00:00 until the 24 at 06:00 UTC


222312Z 2300/2406 26008KT 9999 BKN030
BECMG 2309/2312 26012G22KT
BECMG 2318/2321 23008KT
No reported NOTAMs for that airfield.



MET'MAP, your aeronautical weather chart ! - Copyright ORBIFLY December 2007 - Disclaimer

ORBIFLY MET'MAP TEAM :

Programming & Development : Alexandra Zaïnal
Concept & Development : Baudouin d'Aumeries
Co-Development & Prog : Marc-Olivier Méhu
Technical & hardware support : Manuel Goepfert

Contact : metmap@orbifly.com




SOURCES & CREDITS :

   NOAA